Time;durP1;ratioP1;P1;durP2;ratioP2;P2;SDS_P1;SDS_P2;PMS_P1;PMS_P2;Temp;Humidity;BMP_temperature;BMP_pressure;BME280_temperature;BME280_humidity;BME280_pressure;Samples;Min_cycle;Max_cycle;Signal;HPM_P1;HPM_P2
2023/03/24 00:00:26;;;;;;;4.43;2.45;;;;;;;14.31;99.53;98782.72;12222023;19;20019;-80
2023/03/24 00:04:28;;;;;;;5.28;2.88;;;;;;;14.28;100.00;98764.72;12217342;19;20480;-80
2023/03/24 00:08:34;;;;;;;3.95;2.42;;;;;;;14.29;100.00;98774.69;12198618;19;20006;-80
2023/03/24 00:12:37;;;;;;;4.15;2.42;;;;;;;14.29;100.00;98758.06;12217178;19;20007;-80
2023/03/24 00:16:44;;;;;;;4.10;2.53;;;;;;;14.27;100.00;98751.97;12216564;19;20474;-80
2023/03/24 00:20:46;;;;;;;4.65;2.42;;;;;;;14.31;100.00;98749.47;12194114;19;20022;-80
2023/03/24 00:24:48;;;;;;;4.80;2.50;;;;;;;14.34;99.36;98743.31;12215535;19;20045;-80
2023/03/24 00:28:50;;;;;;;5.78;3.25;;;;;;;14.36;98.97;98738.28;12212082;19;20010;-80
2023/03/24 00:32:52;;;;;;;4.37;2.13;;;;;;;14.33;98.75;98711.97;12203556;19;20031;-80
2023/03/24 00:36:54;;;;;;;2.92;2.03;;;;;;;14.36;97.99;98714.16;12229690;19;20035;-80
2023/03/24 00:40:57;;;;;;;4.63;2.42;;;;;;;14.40;97.56;98703.31;12232853;19;20014;-81
2023/03/24 00:44:59;;;;;;;3.15;2.08;;;;;;;14.41;97.12;98702.16;12210644;19;20706;-81
2023/03/24 00:49:04;;;;;;;4.25;2.00;;;;;;;14.44;96.87;98700.75;12229848;19;20014;-81
2023/03/24 00:53:07;;;;;;;5.05;2.20;;;;;;;14.38;97.55;98694.47;12232023;19;20010;-81
2023/03/24 00:57:11;;;;;;;4.07;2.87;;;;;;;14.38;97.78;98688.09;12204865;19;20014;-81
2023/03/24 01:01:13;;;;;;;6.78;2.50;;;;;;;14.36;97.65;98677.31;12227168;19;20013;-81
2023/03/24 01:05:16;;;;;;;3.72;2.10;;;;;;;14.33;98.00;98673.19;12226482;19;20010;-80
2023/03/24 01:09:20;;;;;;;5.10;2.63;;;;;;;14.30;97.85;98648.03;12203387;19;20026;-80
2023/03/24 01:13:25;;;;;;;4.45;2.75;;;;;;;14.28;98.06;98639.22;12227887;19;20027;-81
2023/03/24 01:17:28;;;;;;;5.70;2.20;;;;;;;14.27;98.29;98637.56;12207647;19;20508;-81
2023/03/24 01:21:31;;;;;;;6.40;2.83;;;;;;;14.23;98.42;98625.44;12228755;19;20011;-81
2023/03/24 01:25:35;;;;;;;3.42;1.90;;;;;;;14.23;98.20;98634.56;12217207;19;20035;-81
2023/03/24 01:29:37;;;;;;;4.72;1.80;;;;;;;14.24;97.99;98638.16;12199622;19;20010;-81
2023/03/24 01:33:39;;;;;;;3.57;1.90;;;;;;;14.25;97.74;98640.66;12223658;19;20006;-81
2023/03/24 01:37:41;;;;;;;3.85;2.25;;;;;;;14.26;96.75;98638.69;12220924;19;20014;-81
2023/03/24 01:41:43;;;;;;;5.65;2.25;;;;;;;14.30;96.07;98620.31;12196152;19;20070;-81
2023/03/24 01:46:06;;;;;;;4.38;2.38;;;;;;;14.32;93.33;98620.84;12222937;19;20019;-81
2023/03/24 01:50:08;;;;;;;5.40;2.90;;;;;;;14.38;93.86;98600.25;12221263;19;20042;-81
2023/03/24 01:54:15;;;;;;;7.32;2.78;;;;;;;14.36;93.11;98619.09;12195234;19;20003;-81
2023/03/24 01:58:18;;;;;;;4.88;2.67;;;;;;;14.36;91.61;98600.53;12222887;19;20014;-81
2023/03/24 02:02:34;;;;;;;4.45;2.08;;;;;;;14.42;90.78;98595.72;12202809;19;20018;-81
2023/03/24 02:06:39;;;;;;;2.50;1.70;;;;;;;14.48;89.62;98594.50;12223686;19;20437;-81
2023/03/24 02:10:43;;;;;;;4.13;2.00;;;;;;;14.55;87.88;98594.16;12225595;19;20018;-81
2023/03/24 02:14:45;;;;;;;3.47;1.83;;;;;;;14.66;87.30;98594.75;12195130;19;20037;-81
2023/03/24 02:19:25;;;;;;;3.33;2.17;;;;;;;14.67;85.92;98579.78;12224971;19;20098;-80
2023/03/24 02:23:55;;;;;;;3.70;1.90;;;;;;;14.77;85.30;98562.94;12202802;19;20013;-82
2023/03/24 02:28:05;;;;;;;3.83;1.88;;;;;;;14.83;85.21;98550.63;12221032;19;20070;-81
2023/03/24 02:32:14;;;;;;;4.20;1.83;;;;;;;14.89;84.83;98557.69;12227907;19;20013;-81
2023/03/24 02:36:27;;;;;;;6.63;2.15;;;;;;;14.90;83.96;98539.09;12206151;19;20062;-81
2023/03/24 02:41:00;;;;;;;3.95;1.67;;;;;;;14.90;83.33;98528.84;12222312;19;20703;-81
2023/03/24 02:45:20;;;;;;;5.40;2.08;;;;;;;14.91;83.31;98510.25;12196095;19;20577;-81
2023/03/24 02:49:37;;;;;;;3.08;2.05;;;;;;;14.97;81.76;98509.00;12212814;19;20011;-81
2023/03/24 02:54:01;;;;;;;4.35;1.90;;;;;;;15.03;81.23;98522.44;12194558;19;20136;-81
2023/03/24 02:58:25;;;;;;;3.72;1.83;;;;;;;15.12;80.25;98538.38;12218503;19;20014;-80
2023/03/24 03:02:39;;;;;;;4.00;1.85;;;;;;;15.28;79.69;98539.66;12192951;19;20092;-82
2023/03/24 03:06:46;;;;;;;3.22;1.75;;;;;;;15.37;77.92;98537.78;12218130;19;20030;-81
2023/03/24 03:10:50;;;;;;;2.55;1.60;;;;;;;15.49;76.35;98534.47;12214172;19;20034;-81
2023/03/24 03:15:02;;;;;;;3.63;1.80;;;;;;;15.63;76.99;98528.88;12192643;19;20091;-82
2023/03/24 03:19:16;;;;;;;4.43;1.90;;;;;;;15.64;75.28;98528.53;12217554;19;20074;-79
2023/03/24 03:23:27;;;;;;;4.18;2.10;;;;;;;15.74;74.49;98538.63;12213251;19;20548;-80
2023/03/24 03:27:37;;;;;;;5.32;1.98;;;;;;;15.71;73.23;98530.94;12234439;19;20011;-82
2023/03/24 03:31:48;;;;;;;4.97;2.03;;;;;;;15.73;72.48;98517.53;12273836;19;20022;-83
2023/03/24 03:36:01;;;;;;;3.83;1.52;;;;;;;15.87;74.42;98523.03;12242909;19;19987;-82
2023/03/24 03:40:13;;;;;;;5.65;2.45;;;;;;;15.80;74.30;98517.94;12242871;19;20007;-88
2023/03/24 03:44:20;;;;;;;3.78;2.22;;;;;;;15.77;74.93;98532.44;12250001;19;20014;-81
2023/03/24 03:48:25;;;;;;;5.60;2.20;;;;;;;15.80;75.43;98536.56;12220685;19;20007;-82
2023/03/24 03:52:27;;;;;;;4.60;2.47;;;;;;;15.74;75.71;98535.03;12212777;19;20011;-85
2023/03/24 03:56:32;;;;;;;5.30;2.63;;;;;;;15.68;77.94;98545.47;12187104;19;20031;-83
2023/03/24 04:00:50;;;;;;;7.10;2.08;;;;;;;15.71;78.76;98548.41;12205244;19;20855;-82
2023/03/24 04:05:32;;;;;;;4.72;2.63;;;;;;;15.62;80.14;98550.28;12214192;19;20031;-84
2023/03/24 04:09:58;;;;;;;6.20;3.17;;;;;;;15.52;81.85;98558.00;12195859;19;20010;-83
2023/03/24 04:14:27;;;;;;;8.18;3.75;;;;;;;15.54;81.64;98553.78;12214166;19;20011;-82
2023/03/24 04:19:05;;;;;;;5.75;3.10;;;;;;;15.41;83.07;98558.25;12193569;19;20078;-84
2023/03/24 04:23:44;;;;;;;5.47;2.67;;;;;;;15.41;83.42;98574.09;12214531;19;20014;-82
2023/03/24 04:27:50;;;;;;;5.05;2.78;;;;;;;15.38;84.19;98583.84;12190575;19;20007;-80
2023/03/24 04:32:18;;;;;;;6.18;2.85;;;;;;;15.27;88.39;98586.03;12216867;19;20141;-84
2023/03/24 04:36:41;;;;;;;6.88;3.22;;;;;;;15.26;90.59;98600.22;12193931;19;20007;-82
2023/03/24 04:41:06;;;;;;;5.97;3.30;;;;;;;15.19;91.90;98594.25;12214377;19;20014;-82
2023/03/24 04:45:09;;;;;;;4.93;3.22;;;;;;;15.18;92.64;98598.16;12194019;19;20018;-82
2023/03/24 04:49:31;;;;;;;5.65;3.17;;;;;;;15.11;95.50;98600.53;12214438;19;20003;-83
2023/03/24 04:53:33;;;;;;;5.47;3.43;;;;;;;15.00;99.86;98589.66;12191184;19;20042;-81
2023/03/24 04:57:34;;;;;;;4.93;3.05;;;;;;;15.03;98.83;98600.13;12215881;19;20268;-81
2023/03/24 05:01:40;;;;;;;5.68;3.17;;;;;;;14.84;100.00;98593.03;12214783;19;20003;-81
2023/03/24 05:06:04;;;;;;;6.70;3.40;;;;;;;14.66;100.00;98597.53;12194369;19;20031;-81
2023/03/24 05:10:07;;;;;;;6.28;3.50;;;;;;;14.49;100.00;98596.16;12217039;19;20035;-81
2023/03/24 05:14:16;;;;;;;6.80;3.85;;;;;;;14.27;100.00;98594.03;12219278;19;20010;-80
2023/03/24 05:18:18;;;;;;;5.45;2.50;;;;;;;14.04;100.00;98582.00;12196855;19;20014;-79
2023/03/24 05:22:20;;;;;;;6.27;3.87;;;;;;;13.83;100.00;98566.81;12237851;19;20007;-79
2023/03/24 05:26:22;;;;;;;9.02;3.88;;;;;;;13.62;100.00;98550.53;12226230;19;20053;-81
2023/03/24 05:30:56;;;;;;;8.10;4.40;;;;;;;13.45;100.00;98558.56;12255262;19;20014;-81
2023/03/24 05:35:20;;;;;;;8.13;3.80;;;;;;;13.29;100.00;98552.41;12218279;19;20018;-82
2023/03/24 05:39:22;;;;;;;7.13;3.20;;;;;;;13.23;100.00;98562.69;12215698;19;20024;-81
2023/03/24 05:43:37;;;;;;;5.57;3.47;;;;;;;13.18;100.00;98581.31;12213985;19;20346;-80
2023/03/24 05:47:45;;;;;;;5.45;2.85;;;;;;;13.12;100.00;98590.81;12193182;19;20018;-80
2023/03/24 05:51:48;;;;;;;7.43;3.28;;;;;;;13.13;100.00;98604.31;12213672;19;21106;-80
2023/03/24 05:55:52;;;;;;;6.80;2.90;;;;;;;13.08;100.00;98593.31;12214832;19;20010;-80
2023/03/24 06:00:22;;;;;;;6.35;2.95;;;;;;;13.12;100.00;98597.16;12188947;19;20013;-79
2023/03/24 06:04:32;;;;;;;7.80;3.13;;;;;;;13.11;100.00;98598.25;12212079;19;20039;-81
2023/03/24 06:08:43;;;;;;;7.97;3.33;;;;;;;13.18;100.00;98620.03;12190297;19;20079;-79
2023/03/24 06:12:46;;;;;;;7.00;3.50;;;;;;;13.21;100.00;98628.56;12212508;19;20006;-79
2023/03/24 06:16:49;;;;;;;9.27;3.25;;;;;;;13.25;100.00;98633.50;12214035;19;20018;-79
2023/03/24 06:20:56;;;;;;;5.45;2.45;;;;;;;13.38;100.00;98627.25;12200035;19;20002;-79
2023/03/24 06:25:03;;;;;;;4.32;2.40;;;;;;;13.51;100.00;98628.50;12215398;19;20803;-79
2023/03/24 06:29:07;;;;;;;4.78;2.70;;;;;;;13.65;100.00;98618.28;12208169;19;20011;-79
2023/03/24 06:33:12;;;;;;;3.63;2.20;;;;;;;13.74;100.00;98618.44;12190834;19;20034;-79
2023/03/24 06:37:17;;;;;;;4.55;2.20;;;;;;;13.79;100.00;98605.34;12212370;19;20013;-79
2023/03/24 06:41:20;;;;;;;4.07;2.10;;;;;;;13.89;100.00;98615.44;12211476;19;20374;-78
2023/03/24 06:45:28;;;;;;;3.42;1.80;;;;;;;13.99;100.00;98611.72;12212314;19;20014;-79
2023/03/24 06:49:33;;;;;;;3.75;2.00;;;;;;;14.05;100.00;98610.50;12210357;19;20854;-79
2023/03/24 06:53:36;;;;;;;3.53;2.03;;;;;;;14.22;100.00;98616.31;12191199;19;20327;-79
2023/03/24 06:57:39;;;;;;;3.97;2.00;;;;;;;14.41;100.00;98609.91;12212332;19;20018;-79
2023/03/24 07:02:04;;;;;;;3.38;1.80;;;;;;;14.53;100.00;98616.63;12207525;19;20015;-80
2023/03/24 07:06:12;;;;;;;3.47;2.15;;;;;;;14.57;100.00;98614.91;12185123;19;20022;-79
2023/03/24 07:10:15;;;;;;;3.78;1.88;;;;;;;14.64;100.00;98616.44;12209180;19;20014;-79
2023/03/24 07:14:24;;;;;;;5.50;2.28;;;;;;;14.75;100.00;98626.19;12183335;19;20018;-80
2023/03/24 07:18:29;;;;;;;4.18;2.53;;;;;;;14.82;100.00;98632.19;12207770;19;20006;-79
2023/03/24 07:22:38;;;;;;;4.70;2.78;;;;;;;14.71;100.00;98637.09;12204037;19;20039;-79
2023/03/24 07:26:56;;;;;;;7.78;3.10;;;;;;;14.70;100.00;98652.09;12186060;19;20003;-78
2023/03/24 07:31:03;;;;;;;6.63;3.80;;;;;;;14.47;100.00;98650.25;12207676;19;20013;-78
2023/03/24 07:35:11;;;;;;;5.15;3.05;;;;;;;14.40;100.00;98645.09;12206337;19;20010;-78
2023/03/24 07:39:16;;;;;;;5.47;3.50;;;;;;;14.33;100.00;98644.66;12189783;19;20010;-78
2023/03/24 07:43:20;;;;;;;7.72;3.83;;;;;;;14.25;100.00;98640.66;12212237;19;20688;-78
2023/03/24 07:47:35;;;;;;;7.97;3.55;;;;;;;14.11;100.00;98646.13;12199266;19;20010;-79
2023/03/24 07:51:38;;;;;;;8.80;3.83;;;;;;;14.00;100.00;98633.56;12220139;19;20007;-80
2023/03/24 07:56:02;;;;;;;6.47;3.55;;;;;;;13.89;100.00;98638.44;12221449;19;20346;-79
2023/03/24 08:00:14;;;;;;;5.28;3.50;;;;;;;13.97;100.00;98647.19;12194933;19;20018;-80
2023/03/24 08:04:27;;;;;;;6.35;3.55;;;;;;;13.92;100.00;98637.03;12216922;19;20030;-80
2023/03/24 08:08:37;;;;;;;7.00;4.07;;;;;;;13.93;100.00;98646.16;12196474;19;20011;-79
2023/03/24 08:12:42;;;;;;;8.05;4.28;;;;;;;13.99;100.00;98629.16;12218682;19;20472;-79
2023/03/24 08:16:45;;;;;;;8.30;4.03;;;;;;;14.09;100.00;98630.94;12215479;19;20709;-80
2023/03/24 08:20:53;;;;;;;8.77;4.35;;;;;;;14.04;100.00;98648.47;12194174;19;20010;-81
2023/03/24 08:24:56;;;;;;;5.97;4.28;;;;;;;14.10;100.00;98632.59;12218614;19;20006;-82
2023/03/24 08:28:58;;;;;;;7.40;4.20;;;;;;;14.18;100.00;98644.91;12215807;19;20077;-80
2023/03/24 08:33:02;;;;;;;5.85;4.05;;;;;;;14.06;100.00;98659.22;12192850;19;20011;-80
2023/03/24 08:37:04;;;;;;;7.65;4.43;;;;;;;14.00;100.00;98660.44;12212086;19;20047;-80
2023/03/24 08:41:07;;;;;;;11.70;5.10;;;;;;;13.92;100.00;98656.41;12212482;19;20046;-81
2023/03/24 08:45:11;;;;;;;9.38;5.13;;;;;;;13.85;100.00;98654.00;12210074;19;20010;-78
2023/03/24 08:49:16;;;;;;;8.05;5.38;;;;;;;13.91;100.00;98654.75;12245268;19;20074;-81
2023/03/24 08:53:20;;;;;;;7.35;5.00;;;;;;;14.01;100.00;98656.53;12215707;19;20015;-79
2023/03/24 08:57:24;;;;;;;9.38;5.13;;;;;;;14.07;100.00;98650.63;12189654;19;20053;-80
2023/03/24 09:01:27;;;;;;;7.17;4.67;;;;;;;14.18;100.00;98651.28;12181671;19;20047;-79
2023/03/24 09:05:31;;;;;;;7.28;5.20;;;;;;;14.34;100.00;98641.59;12197749;19;20267;-81
2023/03/24 09:09:45;;;;;;;7.55;4.55;;;;;;;14.41;100.00;98638.44;12215392;19;20006;-80
2023/03/24 09:13:48;;;;;;;6.30;4.10;;;;;;;14.34;100.00;98643.56;12220652;19;20035;-80
2023/03/24 09:17:52;;;;;;;7.57;5.00;;;;;;;14.22;100.00;98659.78;12199638;19;20035;-79
2023/03/24 09:21:54;;;;;;;7.90;4.60;;;;;;;14.22;100.00;98655.09;12218641;19;20038;-79
2023/03/24 09:25:57;;;;;;;9.60;4.78;;;;;;;14.23;100.00;98661.47;12218131;19;20011;-80
2023/03/24 09:29:59;;;;;;;7.05;4.82;;;;;;;14.11;100.00;98659.16;12197462;19;20007;-79
2023/03/24 09:34:04;;;;;;;7.95;4.85;;;;;;;14.10;100.00;98663.88;12217895;19;20006;-78
2023/03/24 09:38:06;;;;;;;6.18;4.43;;;;;;;14.10;100.00;98660.28;12220525;19;20034;-79
2023/03/24 09:42:18;;;;;;;7.72;3.35;;;;;;;14.06;100.00;98667.53;12196398;19;20322;-80
2023/03/24 09:46:37;;;;;;;6.25;4.32;;;;;;;13.93;100.00;98663.59;12242009;19;20049;-79
2023/03/24 09:50:50;;;;;;;8.75;4.85;;;;;;;13.88;100.00;98674.72;12203426;19;20030;-79
2023/03/24 09:54:57;;;;;;;6.43;4.15;;;;;;;13.83;100.00;98683.94;12223003;19;20006;-81
2023/03/24 09:59:04;;;;;;;9.98;4.40;;;;;;;13.84;100.00;98682.00;12231260;19;20699;-81
2023/03/24 10:03:13;;;;;;;8.80;4.53;;;;;;;13.79;100.00;98682.06;12247660;19;20015;-80
2023/03/24 10:07:41;;;;;;;8.63;4.32;;;;;;;13.75;100.00;98676.31;12267639;19;20014;-81
2023/03/24 10:11:54;;;;;;;8.55;4.80;;;;;;;13.84;100.00;98668.16;12201271;19;20025;-81
2023/03/24 10:16:11;;;;;;;8.83;3.90;;;;;;;13.83;100.00;98685.88;12216909;19;20018;-80
2023/03/24 10:20:25;;;;;;;6.82;4.47;;;;;;;13.84;100.00;98729.06;12215123;19;20074;-79
2023/03/24 10:24:44;;;;;;;5.93;3.28;;;;;;;13.70;100.00;98769.69;12191522;19;20015;-81
2023/03/24 10:28:53;;;;;;;2.88;1.30;;;;;;;12.81;100.00;98790.19;12216656;19;20452;-81
2023/03/24 10:32:55;;;;;;;5.30;0.88;;;;;;;12.08;100.00;98774.44;12193765;19;20504;-83
2023/03/24 10:36:59;;;;;;;;;;;;;;;11.94;100.00;98784.44;12218759;19;20017;-83
2023/03/24 10:41:04;;;;;;;2.03;0.93;;;;;;;11.88;100.00;98789.16;12218676;19;20523;-83
2023/03/24 10:45:16;;;;;;;2.35;0.90;;;;;;;11.92;100.00;98795.75;12195305;19;20014;-83
2023/03/24 10:49:21;;;;;;;1.77;1.00;;;;;;;11.92;100.00;98792.16;12217118;19;20364;-83
2023/03/24 10:53:26;;;;;;;3.55;1.23;;;;;;;12.00;100.00;98802.63;12191482;19;20021;-83
2023/03/24 10:57:29;;;;;;;3.50;1.65;;;;;;;12.25;100.00;98808.00;12216021;19;20007;-84
2023/03/24 11:01:33;;;;;;;;;;;;;;;12.41;100.00;98807.94;12213502;19;20030;-83
2023/03/24 11:05:38;;;;;;;2.00;0.82;;;;;;;12.29;100.00;98805.50;12195848;19;19918;-82
2023/03/24 11:09:45;;;;;;;3.28;1.05;;;;;;;12.19;100.00;98817.41;12212465;19;20038;-83
2023/03/24 11:13:55;;;;;;;1.48;0.70;;;;;;;12.06;100.00;98829.94;12204900;19;20475;-83
2023/03/24 11:18:15;;;;;;;2.58;0.85;;;;;;;11.89;100.00;98825.88;12188717;19;20023;-81
2023/03/24 11:22:17;;;;;;;4.90;0.93;;;;;;;11.91;100.00;98826.41;12213972;19;20058;-82
2023/03/24 11:26:32;;;;;;;3.60;0.98;;;;;;;12.05;100.00;98810.91;12196221;19;20007;-84
2023/03/24 11:30:50;;;;;;;2.50;0.88;;;;;;;12.36;100.00;98810.72;12210242;19;20394;-84
2023/03/24 11:35:16;;;;;;;3.03;0.60;;;;;;;12.86;100.00;98812.28;12210918;19;20010;-83
2023/03/24 11:39:23;;;;;;;3.92;0.70;;;;;;;13.17;100.00;98810.03;12188890;19;20034;-82
2023/03/24 11:43:29;;;;;;;3.97;1.20;;;;;;;13.35;100.00;98805.75;12208214;19;20014;-83
2023/03/24 11:47:37;;;;;;;3.13;1.02;;;;;;;13.55;100.00;98803.91;12189028;19;20022;-82
2023/03/24 11:51:43;;;;;;;5.03;1.20;;;;;;;13.55;100.00;98799.19;12206053;19;20076;-84
2023/03/24 11:55:49;;;;;;;2.40;0.75;;;;;;;13.60;100.00;98801.91;12207252;19;20009;-81
2023/03/24 12:00:17;;;;;;;3.13;0.85;;;;;;;13.70;100.00;98809.25;12184275;19;20006;-81
2023/03/24 12:04:41;;;;;;;4.00;0.90;;;;;;;13.79;100.00;98820.50;12205666;19;20503;-79
2023/03/24 12:08:57;;;;;;;4.50;1.00;;;;;;;13.80;100.00;98811.06;12181898;19;20520;-79
2023/03/24 12:13:30;;;;;;;2.17;0.90;;;;;;;13.75;100.00;98822.22;12200309;19;20086;-79
2023/03/24 12:17:39;;;;;;;3.33;0.98;;;;;;;13.65;100.00;98824.00;12185238;19;20011;-79
2023/03/24 12:22:07;;;;;;;2.97;0.68;;;;;;;13.55;100.00;98818.56;12205636;19;20007;-80
2023/03/24 12:26:33;;;;;;;1.35;0.70;;;;;;;13.58;100.00;98819.91;12213650;19;20034;-80
2023/03/24 12:30:39;;;;;;;3.50;0.75;;;;;;;13.74;100.00;98812.25;12195093;19;20018;-80
2023/03/24 12:35:06;;;;;;;5.20;0.80;;;;;;;14.07;100.00;98810.47;12217529;19;20026;-79
2023/03/24 12:39:14;;;;;;;1.60;0.52;;;;;;;14.33;100.00;98822.81;12193324;19;20003;-80
2023/03/24 12:43:30;;;;;;;2.25;0.88;;;;;;;14.79;100.00;98810.28;12227985;19;20011;-80
2023/03/24 12:47:50;;;;;;;2.50;0.95;;;;;;;15.44;100.00;98804.69;12201548;19;20028;-80
2023/03/24 12:52:19;;;;;;;2.08;0.70;;;;;;;16.27;100.00;98807.47;12216550;19;20083;-80
2023/03/24 12:56:35;;;;;;;4.43;1.70;;;;;;;16.81;98.47;98797.34;12189541;19;20010;-81
2023/03/24 13:00:43;;;;;;;2.88;0.98;;;;;;;17.27;85.79;98801.72;12214129;19;20006;-83
2023/03/24 13:04:48;;;;;;;4.57;1.08;;;;;;;17.63;79.60;98795.19;12214597;19;20026;-81
2023/03/24 13:09:35;;;;;;;5.00;0.98;;;;;;;17.33;76.34;98807.16;12193069;19;20010;-85
2023/03/24 13:13:43;;;;;;;3.17;1.08;;;;;;;17.25;75.35;98817.09;12213466;19;20010;-86
2023/03/24 13:18:17;;;;;;;1.95;0.68;;;;;;;17.69;64.95;98799.47;12197140;19;20010;-85
2023/03/24 13:22:23;;;;;;;2.97;0.70;;;;;;;17.43;65.87;98798.53;12235868;19;20010;-86
2023/03/24 13:27:04;;;;;;;4.82;0.82;;;;;;;17.03;66.67;98787.34;12203594;19;20026;-79
2023/03/24 13:31:08;;;;;;;1.95;0.88;;;;;;;16.93;67.03;98790.41;12220859;19;20018;-84
2023/03/24 13:35:19;;;;;;;4.15;1.67;;;;;;;16.89;63.79;98779.06;12225039;19;20007;-85
2023/03/24 13:39:25;;;;;;;4.18;1.20;;;;;;;16.56;65.35;98784.00;12200112;19;20031;-83
2023/03/24 13:43:33;;;;;;;3.55;0.93;;;;;;;16.72;68.39;98774.16;12220421;19;20010;-84
2023/03/24 13:47:49;;;;;;;2.60;0.75;;;;;;;17.31;64.49;98765.72;12221277;19;20379;-79
2023/03/24 13:51:51;;;;;;;4.35;1.00;;;;;;;17.50;60.79;98765.50;12263371;19;20002;-80
2023/03/24 13:55:54;;;;;;;3.53;1.13;;;;;;;18.56;53.61;98771.81;12228656;19;20095;-87
2023/03/24 14:00:05;;;;;;;;;;;;;;;19.73;50.19;98777.38;12193968;19;20086;-84
2023/03/24 14:04:18;;;;;;;1.50;0.80;;;;;;;20.27;44.86;98783.97;12224032;19;19911;-88
2023/03/24 14:08:53;;;;;;;2.50;0.85;;;;;;;19.61;50.64;98780.03;12211920;19;20022;-81
2023/03/24 14:12:57;;;;;;;5.72;1.00;;;;;;;19.26;45.77;98766.16;12222678;19;20549;-85
2023/03/24 14:17:14;;;;;;;3.50;1.48;;;;;;;19.01;49.43;98749.16;12217569;19;20762;-83
2023/03/24 14:21:28;;;;;;;2.33;0.70;;;;;;;18.88;47.23;98744.56;12198465;19;20006;-81
2023/03/24 14:25:31;;;;;;;1.73;0.73;;;;;;;18.30;46.63;98735.56;12213681;19;20578;-81
2023/03/24 14:29:46;;;;;;;2.67;0.73;;;;;;;18.14;48.50;98748.31;12194735;19;20002;-82
2023/03/24 14:33:51;;;;;;;3.63;0.70;;;;;;;18.10;49.74;98744.53;12214770;19;20760;-83
2023/03/24 14:38:00;;;;;;;4.63;1.05;;;;;;;18.39;50.26;98743.94;12212762;19;20019;-81
2023/03/24 14:42:31;;;;;;;3.15;0.80;;;;;;;18.79;48.58;98763.28;12190129;19;20033;-83
2023/03/24 14:46:39;;;;;;;4.65;0.90;;;;;;;19.15;50.75;98765.69;12211517;19;20011;-83
2023/03/24 14:50:42;;;;;;;3.63;0.75;;;;;;;19.48;49.25;98763.16;12185344;19;20025;-82
2023/03/24 14:54:52;;;;;;;2.53;0.80;;;;;;;19.51;46.29;98753.25;12211577;19;20014;-81
2023/03/24 14:58:55;;;;;;;5.70;0.85;;;;;;;19.31;48.84;98754.81;12210871;19;20014;-79
2023/03/24 15:03:01;;;;;;;;;;;;;;;19.02;49.62;98745.19;12188075;19;20010;-83
2023/03/24 15:07:05;;;;;;;3.85;1.10;;;;;;;19.18;48.96;98741.88;12210007;19;19921;-81
2023/03/24 15:11:09;;;;;;;3.75;0.85;;;;;;;18.87;50.75;98738.16;12210012;19;20014;-82
2023/03/24 15:15:22;;;;;;;3.75;1.10;;;;;;;18.87;49.83;98735.38;12184134;19;20456;-81
2023/03/24 15:19:26;;;;;;;4.22;1.17;;;;;;;18.71;45.44;98728.66;12205364;19;20026;-80
2023/03/24 15:23:30;;;;;;;2.97;0.85;;;;;;;18.72;48.09;98730.28;12184262;19;20018;-82
2023/03/24 15:27:33;;;;;;;6.95;1.23;;;;;;;18.70;49.05;98723.38;12212331;19;20034;-81
2023/03/24 15:31:35;;;;;;;4.00;0.90;;;;;;;18.47;48.08;98712.41;12211623;19;20014;-81
2023/03/24 15:35:40;;;;;;;3.83;1.55;;;;;;;18.34;47.87;98724.56;12185911;19;20063;-79
2023/03/24 15:39:48;;;;;;;3.60;1.00;;;;;;;18.59;47.30;98726.53;12211068;19;20014;-80
2023/03/24 15:43:52;;;;;;;4.75;0.95;;;;;;;18.81;45.82;98702.41;12208615;19;20445;-80
2023/03/24 15:47:55;;;;;;;2.10;0.60;;;;;;;18.75;46.72;98707.34;12190195;19;20010;-82
2023/03/24 15:52:20;;;;;;;2.78;0.90;;;;;;;18.07;44.46;98707.00;12210042;19;20034;-82
2023/03/24 15:56:30;;;;;;;3.30;0.90;;;;;;;18.07;45.13;98703.38;12190144;19;20074;-80
2023/03/24 16:00:39;;;;;;;3.15;0.90;;;;;;;18.15;44.74;98697.00;12216611;19;20476;-81
2023/03/24 16:04:42;;;;;;;5.20;1.33;;;;;;;17.88;44.51;98706.47;12218894;19;20043;-82
2023/03/24 16:08:45;;;;;;;4.27;1.10;;;;;;;17.66;44.69;98712.94;12198806;19;20014;-83
2023/03/24 16:12:48;;;;;;;3.22;1.20;;;;;;;17.75;45.05;98711.81;12229299;19;20471;-85
2023/03/24 16:16:54;;;;;;;3.72;0.73;;;;;;;18.01;43.47;98718.63;12266103;19;20014;-78
2023/03/24 16:21:12;;;;;;;4.82;0.70;;;;;;;17.74;43.68;98715.75;12255132;19;20015;-79
2023/03/24 16:25:14;;;;;;;3.08;1.05;;;;;;;17.58;43.90;98720.16;12260103;19;20055;-81
2023/03/24 16:29:19;;;;;;;6.75;0.80;;;;;;;17.63;45.56;98727.50;12256764;19;20070;-79
2023/03/24 16:33:22;;;;;;;3.70;0.73;;;;;;;17.68;44.33;98728.19;12241521;19;20010;-78
2023/03/24 16:37:24;;;;;;;7.60;1.25;;;;;;;17.43;44.88;98726.13;12263289;19;20041;-80
2023/03/24 16:41:26;;;;;;;5.40;1.10;;;;;;;17.18;45.10;98730.44;12247412;19;20006;-82
2023/03/24 16:45:30;;;;;;;4.93;1.00;;;;;;;17.01;44.90;98739.50;12259887;19;20015;-83
2023/03/24 16:49:34;;;;;;;3.47;1.08;;;;;;;16.73;44.98;98733.25;12233734;19;20495;-85
2023/03/24 16:53:36;;;;;;;4.13;1.17;;;;;;;16.32;47.48;98739.81;12204737;19;20107;-85
2023/03/24 16:57:37;;;;;;;5.35;1.33;;;;;;;15.98;47.51;98748.66;12232141;19;20018;-83
2023/03/24 17:01:44;;;;;;;3.85;1.08;;;;;;;15.80;48.37;98756.81;12231190;19;20014;-84
2023/03/24 17:05:49;;;;;;;5.40;1.25;;;;;;;15.77;48.95;98756.59;12203166;19;20017;-84
2023/03/24 17:09:54;;;;;;;3.70;1.73;;;;;;;15.70;49.10;98752.28;12221564;19;20075;-84
2023/03/24 17:14:00;;;;;;;4.77;0.80;;;;;;;15.54;49.76;98747.31;12220683;19;20095;-83
2023/03/24 17:18:04;;;;;;;3.58;0.90;;;;;;;15.47;50.51;98754.09;12196590;19;20010;-84
2023/03/24 17:22:06;;;;;;;4.30;1.02;;;;;;;15.35;51.29;98752.94;12221861;19;20014;-85
2023/03/24 17:26:08;;;;;;;5.13;0.82;;;;;;;15.20;51.32;98757.69;12226141;19;20530;-82
2023/03/24 17:30:16;;;;;;;4.73;0.90;;;;;;;15.26;50.73;98763.97;12202961;19;20116;-84
2023/03/24 17:34:19;;;;;;;2.20;0.80;;;;;;;15.31;50.62;98771.34;12219581;19;20002;-83
2023/03/24 17:38:23;;;;;;;3.50;0.93;;;;;;;15.26;51.17;98769.50;12199460;19;20479;-84
2023/03/24 17:42:26;;;;;;;4.22;1.10;;;;;;;15.04;51.62;98771.00;12221767;19;20034;-84
2023/03/24 17:46:27;;;;;;;4.45;0.90;;;;;;;14.84;52.19;98776.06;12214794;19;20042;-82
2023/03/24 17:50:29;;;;;;;4.07;0.93;;;;;;;14.59;52.83;98776.19;12195957;19;20014;-83
2023/03/24 17:54:31;;;;;;;3.03;0.70;;;;;;;14.41;53.64;98788.09;12216076;19;20118;-83
2023/03/24 17:58:34;;;;;;;3.05;1.05;;;;;;;14.29;54.28;98784.94;12218662;19;20023;-84
2023/03/24 18:02:40;;;;;;;;;;;;;;;14.10;55.11;98785.75;12191609;19;20119;-84
2023/03/24 18:06:42;;;;;;;3.33;0.85;;;;;;;13.98;55.72;98792.84;12217958;19;20272;-83
2023/03/24 18:10:44;;;;;;;4.57;1.00;;;;;;;13.87;56.08;98795.75;12216505;19;20038;-81
2023/03/24 18:14:46;;;;;;;8.30;1.40;;;;;;;13.90;56.15;98799.88;12193856;19;20026;-84
2023/03/24 18:18:49;;;;;;;6.10;1.27;;;;;;;13.84;55.77;98801.88;12233012;19;20014;-85
2023/03/24 18:22:53;;;;;;;3.30;1.08;;;;;;;13.72;57.14;98811.75;12216945;19;20015;-84
2023/03/24 18:26:55;;;;;;;3.57;1.13;;;;;;;13.65;56.20;98815.69;12200748;19;20057;-83
2023/03/24 18:30:57;;;;;;;3.90;1.08;;;;;;;13.62;55.87;98813.50;12217648;19;20015;-83
2023/03/24 18:34:59;;;;;;;4.55;1.23;;;;;;;13.54;56.04;98816.09;12222488;19;20014;-83
2023/03/24 18:39:05;;;;;;;5.40;1.17;;;;;;;13.48;56.24;98820.84;12200921;19;20018;-83
2023/03/24 18:43:08;;;;;;;4.25;1.30;;;;;;;13.44;56.80;98828.06;12214408;19;20039;-82
2023/03/24 18:47:11;;;;;;;3.23;1.17;;;;;;;13.36;57.49;98828.72;12214584;19;20039;-82
2023/03/24 18:51:14;;;;;;;6.97;1.30;;;;;;;13.25;58.53;98835.44;12200215;19;20010;-80
2023/03/24 18:55:17;;;;;;;6.93;2.10;;;;;;;13.20;59.70;98826.06;12260328;19;20042;-81
2023/03/24 18:59:19;;;;;;;8.95;3.60;;;;;;;13.11;60.97;98833.34;12235093;19;20491;-83
2023/03/24 19:03:23;;;;;;;14.48;3.78;;;;;;;13.01;61.37;98830.69;12215764;19;20101;-83
2023/03/24 19:07:25;;;;;;;10.38;3.00;;;;;;;12.91;61.77;98828.84;12217306;19;20018;-83
2023/03/24 19:11:28;;;;;;;9.82;3.75;;;;;;;12.96;62.14;98837.06;12196527;19;20014;-83